Skip Navigation LinksHome page > Weather > Current weather Skip Navigation Links

Current Weather

Boire Field, Nashua, N.H.

For information only: do not use for flight planning or navigation.
Latest weather
Observation time Tuesday, December 1, 2020 8:56 AM EST
Local time Tuesday, December 1, 2020 9:36 AM EST
Flight conditions Visual Meteorological Conditions
Winds
Wind direction Southeast (140°)
Wind speed 5 mph
Visibility 8 mi.
Sky condition
Ceiling unlimited
Sky clear
Temperature 59°F
Dewpoint 59°F
Altimeter 29.53 in.Hg
Derived measurements
Relative humidity 100%
Density altitude 887 ft.
Sea-level pressure 29.55 in.Hg
Remarks
Automated weather observing station with precipitation discriminator.
METAR KASH 011356Z 14004KT 8SM CLR 15/15 A2953 RMK AO2 SLP006 T01500150

Settings

Location code

InnerDrive.Weather 4.0.6770.0 Release CLR 4.0.30319.42000
Copyright ©2018 Inner Drive Technology. All rights reserved. Portions Copyright ©1986-2018 David Braverman.

Find weather

Site navigation


Skip Navigation Links

Place info

Page info

PayPal - The safer, easier way to pay online!

Return home.

Copyright ©2020 Inner Drive Technology. Purveyors of fine, hand-crafted computer software. Page printed 2020-12-01T14:36:45 UTC.